createdAt,value
2022-12-03T00:00:41.883Z,22
2022-12-03T00:01:41.884Z,18
2022-12-03T00:02:41.897Z,17
2022-12-03T00:03:41.897Z,16
2022-12-03T00:04:41.884Z,23
2022-12-03T00:05:41.884Z,20
2022-12-03T00:06:41.897Z,21
2022-12-03T00:07:41.898Z,15
2022-12-03T00:08:41.884Z,15
2022-12-03T00:09:41.897Z,13
2022-12-03T00:10:41.898Z,12
2022-12-03T00:11:41.898Z,13
2022-12-03T00:12:41.885Z,13
2022-12-03T00:13:41.898Z,13
2022-12-03T00:14:41.941Z,13
2022-12-03T00:15:41.898Z,17
2022-12-03T00:16:41.885Z,16
2022-12-03T00:17:41.898Z,12
2022-12-03T00:18:41.899Z,26
2022-12-03T00:19:41.898Z,22
2022-12-03T00:20:41.886Z,20
2022-12-03T00:21:41.899Z,21
2022-12-03T00:22:41.899Z,19
2022-12-03T00:23:41.886Z,20
2022-12-03T00:24:41.886Z,21
2022-12-03T00:25:41.899Z,18
2022-12-03T00:26:41.900Z,26
2022-12-03T00:27:41.886Z,27
2022-12-03T00:28:41.900Z,22
2022-12-03T00:29:41.900Z,26
2022-12-03T00:30:41.900Z,26
2022-12-03T00:31:41.887Z,22
2022-12-03T00:32:41.900Z,25
2022-12-03T00:33:41.901Z,27
2022-12-03T00:34:41.900Z,22
2022-12-03T00:35:41.887Z,20
2022-12-03T00:36:41.901Z,10
2022-12-03T00:37:41.901Z,14
2022-12-03T00:38:41.888Z,11
2022-12-03T00:39:41.888Z,15
2022-12-03T00:40:41.901Z,17
2022-12-03T00:41:41.902Z,16
2022-12-03T00:42:41.888Z,18
2022-12-03T00:43:41.888Z,21
2022-12-03T00:44:41.901Z,18
2022-12-03T00:45:41.901Z,18
2022-12-03T00:46:41.889Z,18
2022-12-03T00:47:41.902Z,17
2022-12-03T00:48:41.902Z,22
2022-12-03T00:49:41.902Z,21
2022-12-03T00:50:41.902Z,20
2022-12-03T00:51:41.902Z,19
2022-12-03T00:52:41.903Z,17
2022-12-03T00:53:41.902Z,19
2022-12-03T00:54:41.889Z,18
2022-12-03T00:55:41.903Z,16
2022-12-03T00:56:41.903Z,16
2022-12-03T00:57:41.890Z,14
2022-12-03T00:58:41.890Z,15
2022-12-03T00:59:41.903Z,18
2022-12-03T01:00:41.904Z,14
2022-12-03T01:01:41.890Z,12
2022-12-03T01:02:41.890Z,13
2022-12-03T01:03:41.904Z,12
2022-12-03T01:04:41.903Z,10
2022-12-03T01:05:41.891Z,10
2022-12-03T01:06:41.904Z,13
2022-12-03T01:07:41.904Z,14
2022-12-03T01:08:41.904Z,17
2022-12-03T01:09:41.891Z,17
2022-12-03T01:10:41.904Z,15
2022-12-03T01:11:41.905Z,15
2022-12-03T01:12:41.904Z,15
2022-12-03T01:13:41.892Z,16
2022-12-03T01:14:41.905Z,16
2022-12-03T01:15:41.905Z,16
2022-12-03T01:16:41.905Z,14
2022-12-03T01:17:41.892Z,13
2022-12-03T01:18:41.905Z,17
2022-12-03T01:19:41.906Z,14
2022-12-03T01:20:41.892Z,18
2022-12-03T01:21:41.892Z,12
2022-12-03T01:22:41.906Z,11
2022-12-03T01:23:41.906Z,12
2022-12-03T01:24:41.893Z,12
2022-12-03T01:25:41.906Z,10
2022-12-03T01:26:41.906Z,12
2022-12-03T01:27:41.906Z,14
2022-12-03T01:28:41.893Z,12
2022-12-03T01:29:41.907Z,12
2022-12-03T01:30:41.907Z,13
2022-12-03T01:31:41.907Z,13
2022-12-03T01:32:41.894Z,11
2022-12-03T01:33:41.907Z,12
2022-12-03T01:34:41.908Z,15
2022-12-03T01:35:41.894Z,11
2022-12-03T01:36:41.894Z,10
2022-12-03T01:37:41.907Z,13
2022-12-03T01:38:41.908Z,11
2022-12-03T01:39:41.895Z,13
2022-12-03T01:40:41.895Z,15
2022-12-03T01:41:41.908Z,11
2022-12-03T01:42:41.908Z,10
2022-12-03T01:43:41.895Z,9
2022-12-03T01:44:41.908Z,11
2022-12-03T01:45:41.908Z,11
2022-12-03T01:46:41.908Z,12
2022-12-03T01:47:41.895Z,12
2022-12-03T01:48:41.909Z,11
2022-12-03T01:49:41.909Z,11
2022-12-03T01:50:41.909Z,12
2022-12-03T01:51:41.896Z,15
2022-12-03T01:52:41.909Z,15
2022-12-03T01:53:41.910Z,14
2022-12-03T01:54:41.896Z,15
2022-12-03T01:55:41.896Z,13
2022-12-03T01:56:41.910Z,14
2022-12-03T01:57:41.910Z,16
2022-12-03T01:58:41.897Z,15
2022-12-03T01:59:41.897Z,18
2022-12-03T02:00:41.910Z,16
2022-12-03T02:01:41.910Z,16
2022-12-03T02:02:41.897Z,18
2022-12-03T02:03:41.910Z,14
2022-12-03T02:04:41.910Z,12
2022-12-03T02:05:47.603Z,12
2022-12-03T02:06:41.898Z,10
2022-12-03T02:07:41.911Z,12
2022-12-03T02:08:41.911Z,8
2022-12-03T02:09:41.911Z,10
2022-12-03T02:10:41.898Z,8
2022-12-03T02:11:41.911Z,8
2022-12-03T02:12:41.912Z,9
2022-12-03T02:13:41.911Z,9
2022-12-03T02:14:41.899Z,8
2022-12-03T02:15:41.912Z,7
2022-12-03T02:16:41.912Z,7
2022-12-03T02:17:41.899Z,4
2022-12-03T02:18:41.899Z,7
2022-12-03T02:19:41.912Z,3
2022-12-03T02:20:41.913Z,3
2022-12-03T02:21:41.899Z,4
2022-12-03T02:22:41.913Z,4
2022-12-03T02:23:41.913Z,6
2022-12-03T02:24:41.913Z,6
2022-12-03T02:25:41.900Z,7
2022-12-03T02:26:41.913Z,6
2022-12-03T02:27:41.956Z,6
2022-12-03T02:28:41.913Z,7
2022-12-03T02:29:41.900Z,10
2022-12-03T02:31:41.914Z,9
2022-12-03T02:32:41.914Z,8
2022-12-03T02:33:41.901Z,8
2022-12-03T02:34:41.914Z,8
2022-12-03T02:35:41.915Z,8
2022-12-03T02:36:41.901Z,10
2022-12-03T02:37:41.901Z,9
2022-12-03T02:38:41.914Z,9
2022-12-03T02:39:41.923Z,11
2022-12-03T02:40:41.901Z,12
2022-12-03T02:41:41.915Z,13
2022-12-03T02:42:41.915Z,13
2022-12-03T02:43:41.915Z,11
2022-12-03T02:44:41.902Z,12
2022-12-03T02:45:41.915Z,11
2022-12-03T02:46:41.916Z,12
2022-12-03T02:47:41.915Z,12
2022-12-03T02:48:41.902Z,12
2022-12-03T02:49:41.916Z,13
2022-12-03T02:50:41.916Z,12
2022-12-03T02:51:41.903Z,11
2022-12-03T02:52:41.903Z,11
2022-12-03T02:53:41.916Z,15
2022-12-03T02:54:41.916Z,16
2022-12-03T02:55:41.903Z,13
2022-12-03T02:56:41.903Z,14
2022-12-03T02:57:41.916Z,15
2022-12-03T02:58:41.916Z,13
2022-12-03T02:59:41.904Z,16
2022-12-03T03:00:41.917Z,14
2022-12-03T03:01:41.917Z,14
2022-12-03T03:02:41.917Z,14
2022-12-03T03:03:41.904Z,14
2022-12-03T03:04:41.917Z,15
2022-12-03T03:05:45.388Z,13
2022-12-03T03:06:41.917Z,12
2022-12-03T03:07:41.904Z,14
2022-12-03T03:08:41.918Z,10
2022-12-03T03:09:41.918Z,11
2022-12-03T03:10:41.918Z,9
2022-12-03T03:11:41.905Z,10
2022-12-03T03:12:41.926Z,12
2022-12-03T03:13:41.919Z,13
2022-12-03T03:14:41.905Z,15
2022-12-03T03:15:41.905Z,13
2022-12-03T03:16:41.918Z,15
2022-12-03T03:17:41.919Z,14
2022-12-03T03:18:41.906Z,14
2022-12-03T03:19:41.983Z,14
2022-12-03T03:20:41.919Z,14
2022-12-03T03:21:41.919Z,13
2022-12-03T03:22:41.906Z,13
2022-12-03T03:23:41.919Z,12
2022-12-03T03:24:41.920Z,13
2022-12-03T03:25:41.920Z,15
2022-12-03T03:26:41.907Z,11
2022-12-03T03:27:41.920Z,13
2022-12-03T03:28:41.920Z,17
2022-12-03T03:29:41.920Z,11
2022-12-03T03:30:41.907Z,12
2022-12-03T03:31:41.969Z,14
2022-12-03T03:32:41.921Z,14
2022-12-03T03:33:41.907Z,15
2022-12-03T03:34:41.908Z,15
2022-12-03T03:35:41.921Z,15
2022-12-03T03:36:41.921Z,15
2022-12-03T03:37:41.908Z,14
2022-12-03T03:38:41.921Z,16
2022-12-03T03:39:41.921Z,14
2022-12-03T03:40:41.921Z,16
2022-12-03T03:41:41.908Z,16
2022-12-03T03:42:41.922Z,15
2022-12-03T03:43:41.972Z,15
2022-12-03T03:44:41.922Z,20
2022-12-03T03:45:41.909Z,16
2022-12-03T03:46:41.922Z,17
2022-12-03T03:47:41.923Z,14
2022-12-03T03:48:41.922Z,13
2022-12-03T03:49:41.909Z,12
2022-12-03T03:50:41.922Z,13
2022-12-03T03:51:41.923Z,12
2022-12-03T03:52:41.910Z,11
2022-12-03T03:53:41.910Z,11
2022-12-03T03:54:41.923Z,12
2022-12-03T03:55:41.923Z,11
2022-12-03T03:56:41.910Z,10
2022-12-03T03:57:41.923Z,9
2022-12-03T03:58:41.923Z,10
2022-12-03T03:59:41.923Z,10
2022-12-03T04:00:41.910Z,8
2022-12-03T04:01:41.924Z,10
2022-12-03T04:02:41.924Z,13
2022-12-03T04:03:41.924Z,11
2022-12-03T04:04:41.911Z,14
2022-12-03T04:05:41.924Z,15
2022-12-03T04:06:41.925Z,13
2022-12-03T04:07:41.924Z,13
2022-12-03T04:08:41.911Z,14
2022-12-03T04:09:41.925Z,16
2022-12-03T04:10:41.925Z,19
2022-12-03T04:11:41.912Z,15
2022-12-03T04:12:41.912Z,15
2022-12-03T04:13:41.925Z,15
2022-12-03T04:14:41.950Z,15
2022-12-03T04:15:41.912Z,15
2022-12-03T04:16:41.974Z,15
2022-12-03T04:17:41.926Z,16
2022-12-03T04:18:41.925Z,14
2022-12-03T04:19:41.913Z,18
2022-12-03T04:20:41.926Z,17
2022-12-03T04:21:41.926Z,19
2022-12-03T04:22:41.926Z,16
2022-12-03T04:23:41.913Z,17
2022-12-03T04:24:41.926Z,15
2022-12-03T04:25:41.927Z,14
2022-12-03T04:26:41.926Z,15
2022-12-03T04:27:41.914Z,14
2022-12-03T04:28:41.967Z,13
2022-12-03T04:29:41.927Z,14
2022-12-03T04:30:41.914Z,18
2022-12-03T04:31:41.914Z,15
2022-12-03T04:32:41.927Z,16
2022-12-03T04:33:41.928Z,13
2022-12-03T04:34:41.914Z,16
2022-12-03T04:35:41.928Z,13
2022-12-03T04:36:41.928Z,13
2022-12-03T04:37:41.928Z,14
2022-12-03T04:38:41.915Z,15
2022-12-03T04:39:41.928Z,16
2022-12-03T04:40:41.971Z,13
2022-12-03T04:41:41.928Z,12
2022-12-03T04:42:41.915Z,14
2022-12-03T04:43:41.928Z,16
2022-12-03T04:44:41.929Z,16
2022-12-03T04:45:41.928Z,9
2022-12-03T04:46:41.916Z,11
2022-12-03T04:47:41.929Z,9
2022-12-03T04:48:41.929Z,12
2022-12-03T04:49:41.916Z,13
2022-12-03T04:50:41.916Z,17
2022-12-03T04:51:41.929Z,15
2022-12-03T04:52:41.953Z,16
2022-12-03T04:53:41.916Z,17
2022-12-03T04:54:41.930Z,15
2022-12-03T04:55:41.930Z,15
2022-12-03T04:56:41.930Z,15
2022-12-03T04:57:41.917Z,15
2022-12-03T04:58:41.930Z,13
2022-12-03T04:59:41.996Z,14
2022-12-03T05:00:41.930Z,12
2022-12-03T05:01:41.917Z,18
2022-12-03T05:02:41.930Z,18
2022-12-03T05:03:41.931Z,18
2022-12-03T05:04:41.931Z,17
2022-12-03T05:05:41.918Z,20
2022-12-03T05:06:41.931Z,16
2022-12-03T05:07:41.932Z,15
2022-12-03T05:08:41.918Z,17
2022-12-03T05:09:41.918Z,18
2022-12-03T05:10:41.931Z,18
2022-12-03T05:11:41.932Z,15
2022-12-03T05:12:41.919Z,14
2022-12-03T05:13:41.932Z,16
2022-12-03T05:14:41.932Z,17
2022-12-03T05:16:41.919Z,12
2022-12-03T05:17:41.932Z,13
2022-12-03T05:18:41.932Z,12
2022-12-03T05:19:41.932Z,12
2022-12-03T05:20:41.920Z,13
2022-12-03T05:21:41.933Z,11
2022-12-03T05:22:41.933Z,12
2022-12-03T05:23:41.933Z,13
2022-12-03T05:24:41.920Z,13
2022-12-03T05:25:41.957Z,16
2022-12-03T05:26:41.934Z,16
2022-12-03T05:27:41.920Z,15
2022-12-03T05:28:41.920Z,16
2022-12-03T05:29:41.933Z,14
2022-12-03T05:30:41.934Z,12
2022-12-03T05:31:41.921Z,13
2022-12-03T05:32:41.958Z,15
2022-12-03T05:33:41.934Z,12
2022-12-03T05:34:41.934Z,14
2022-12-03T05:35:41.921Z,11
2022-12-03T05:36:41.934Z,10
2022-12-03T05:37:41.934Z,13
2022-12-03T05:38:41.935Z,9
2022-12-03T05:39:41.922Z,11
2022-12-03T05:40:41.935Z,12
2022-12-03T05:41:41.935Z,14
2022-12-03T05:42:41.935Z,12
2022-12-03T05:43:41.922Z,18
2022-12-03T05:44:41.935Z,14
2022-12-03T05:45:41.936Z,17
2022-12-03T05:46:41.922Z,18
2022-12-03T05:47:41.923Z,16
2022-12-03T05:48:41.936Z,15
2022-12-03T05:49:41.936Z,17
2022-12-03T05:50:41.923Z,17
2022-12-03T05:51:41.923Z,22
2022-12-03T05:52:41.936Z,20
2022-12-03T05:53:41.936Z,19
2022-12-03T05:54:41.923Z,24
2022-12-03T05:55:41.937Z,20
2022-12-03T05:56:41.937Z,20
2022-12-03T05:57:41.937Z,18
2022-12-03T05:58:41.924Z,19
2022-12-03T05:59:41.937Z,19
2022-12-03T06:00:41.938Z,21
2022-12-03T06:01:41.937Z,20
2022-12-03T06:02:41.924Z,19
2022-12-03T06:03:41.937Z,19
2022-12-03T06:04:41.938Z,20
2022-12-03T06:05:41.925Z,13
2022-12-03T06:06:41.925Z,18
2022-12-03T06:07:41.938Z,20
2022-12-03T06:08:41.938Z,20
2022-12-03T06:09:41.925Z,15
2022-12-03T06:10:41.979Z,18
2022-12-03T06:11:41.938Z,17
2022-12-03T06:12:41.938Z,17
2022-12-03T06:13:41.925Z,21
2022-12-03T06:14:41.939Z,17
2022-12-03T06:15:41.939Z,16
2022-12-03T06:16:41.939Z,20
2022-12-03T06:17:41.926Z,17
2022-12-03T06:18:41.939Z,14
2022-12-03T06:19:41.940Z,15
2022-12-03T06:20:41.939Z,19
2022-12-03T06:21:41.926Z,15
2022-12-03T06:22:41.940Z,14
2022-12-03T06:23:41.940Z,19
2022-12-03T06:24:41.927Z,25
2022-12-03T06:25:41.927Z,23
2022-12-03T06:26:41.940Z,16
2022-12-03T06:27:41.941Z,17
2022-12-03T06:28:41.927Z,21
2022-12-03T06:29:41.940Z,19
2022-12-03T06:30:41.940Z,19
2022-12-03T06:31:41.940Z,18
2022-12-03T06:32:41.928Z,15
2022-12-03T06:33:41.941Z,20
2022-12-03T06:34:41.941Z,19
2022-12-03T06:35:41.941Z,20
2022-12-03T06:36:41.928Z,25
2022-12-03T06:37:41.941Z,19
2022-12-03T06:38:41.942Z,17
2022-12-03T06:39:41.941Z,20
2022-12-03T06:40:41.928Z,21
2022-12-03T06:41:41.942Z,18
2022-12-03T06:42:41.942Z,15
2022-12-03T06:43:41.929Z,15
2022-12-03T06:44:41.929Z,18
2022-12-03T06:45:41.942Z,18
2022-12-03T06:46:41.943Z,18
2022-12-03T06:47:41.929Z,20
2022-12-03T06:48:41.929Z,22
2022-12-03T06:49:41.943Z,16
2022-12-03T06:50:41.943Z,19
2022-12-03T06:51:41.930Z,23
2022-12-03T06:52:41.943Z,21
2022-12-03T06:53:41.943Z,19
2022-12-03T06:54:41.943Z,22
2022-12-03T06:55:41.930Z,18
2022-12-03T06:56:41.943Z,19
2022-12-03T06:57:41.944Z,12
2022-12-03T06:58:41.943Z,15
2022-12-03T06:59:41.931Z,15
2022-12-03T07:00:41.944Z,14
2022-12-03T07:01:41.944Z,12
2022-12-03T07:02:41.931Z,13
2022-12-03T07:03:41.931Z,15
2022-12-03T07:04:41.944Z,12
2022-12-03T07:05:41.945Z,12
2022-12-03T07:06:41.931Z,13
2022-12-03T07:07:42.009Z,15
2022-12-03T07:08:41.945Z,19
2022-12-03T07:09:41.945Z,14
2022-12-03T07:10:41.932Z,14
2022-12-03T07:11:41.945Z,13
2022-12-03T07:12:41.945Z,19
2022-12-03T07:13:41.945Z,19
2022-12-03T07:14:41.932Z,18
2022-12-03T07:15:41.946Z,17
2022-12-03T07:16:41.946Z,19
2022-12-03T07:17:41.946Z,22
2022-12-03T07:18:41.933Z,18
2022-12-03T07:19:41.954Z,20
2022-12-03T07:20:41.946Z,17
2022-12-03T07:21:41.933Z,17
2022-12-03T07:22:41.933Z,19
2022-12-03T07:23:41.946Z,22
2022-12-03T07:24:41.947Z,21
2022-12-03T07:25:41.933Z,22
2022-12-03T07:26:41.947Z,24
2022-12-03T07:27:41.947Z,23
2022-12-03T07:28:41.947Z,16
2022-12-03T07:29:41.934Z,19
2022-12-03T07:30:41.947Z,16
2022-12-03T07:31:41.990Z,21
2022-12-03T07:32:41.947Z,18
2022-12-03T07:33:41.934Z,18
2022-12-03T07:34:41.947Z,21
2022-12-03T07:35:41.948Z,17
2022-12-03T07:36:41.948Z,26
2022-12-03T07:37:41.935Z,28
2022-12-03T07:38:41.948Z,27
2022-12-03T07:39:41.948Z,17
2022-12-03T07:40:41.935Z,22
2022-12-03T07:41:41.935Z,26
2022-12-03T07:42:41.948Z,20
2022-12-03T07:43:41.949Z,19
2022-12-03T07:44:41.935Z,27
2022-12-03T07:45:41.989Z,23
2022-12-03T07:46:41.949Z,26
2022-12-03T07:47:41.949Z,30
2022-12-03T07:48:41.936Z,29
2022-12-03T07:49:41.949Z,28
2022-12-03T07:50:41.949Z,28
2022-12-03T07:51:41.949Z,24
2022-12-03T07:52:41.936Z,26
2022-12-03T07:53:41.950Z,18
2022-12-03T07:54:41.950Z,18
2022-12-03T07:55:41.950Z,16
2022-12-03T07:56:41.937Z,21
2022-12-03T07:57:41.950Z,21
2022-12-03T07:58:41.950Z,27
2022-12-03T07:59:41.937Z,21
2022-12-03T08:00:41.937Z,25
2022-12-03T08:01:41.950Z,19
2022-12-03T08:02:41.951Z,26
2022-12-03T08:03:41.937Z,26
2022-12-03T08:04:41.951Z,30
2022-12-03T08:05:41.951Z,29
2022-12-03T08:06:41.951Z,23
2022-12-03T08:07:41.938Z,29
2022-12-03T08:08:41.951Z,34
2022-12-03T08:09:41.952Z,33
2022-12-03T08:10:41.951Z,28
2022-12-03T08:11:41.938Z,29
2022-12-03T08:12:41.952Z,32
2022-12-03T08:13:41.952Z,37
2022-12-03T08:14:41.952Z,41
2022-12-03T08:15:41.939Z,41
2022-12-03T08:16:41.952Z,49
2022-12-03T08:17:41.952Z,38
2022-12-03T08:18:41.939Z,33
2022-12-03T08:19:41.939Z,40
2022-12-03T08:20:41.952Z,34
2022-12-03T08:21:41.953Z,31
2022-12-03T08:22:41.939Z,43
2022-12-03T08:23:41.953Z,38
2022-12-03T08:24:41.953Z,36
2022-12-03T08:25:41.953Z,43
2022-12-03T08:26:41.940Z,51
2022-12-03T08:27:41.953Z,42
2022-12-03T08:28:41.954Z,41
2022-12-03T08:29:41.953Z,41
2022-12-03T08:30:41.940Z,46
2022-12-03T08:31:41.954Z,38
2022-12-03T08:32:41.954Z,27
2022-12-03T08:33:41.967Z,35
2022-12-03T08:34:41.941Z,41
2022-12-03T08:35:41.954Z,38
2022-12-03T08:36:41.955Z,46
2022-12-03T08:37:41.941Z,46
2022-12-03T08:38:41.941Z,53
2022-12-03T08:39:41.954Z,46
2022-12-03T08:40:41.955Z,47
2022-12-03T08:41:41.942Z,42
2022-12-03T08:42:41.995Z,50
2022-12-03T08:43:41.955Z,36
2022-12-03T08:44:41.955Z,37
2022-12-03T08:45:41.942Z,43
2022-12-03T08:46:41.955Z,39
2022-12-03T08:47:41.955Z,33
2022-12-03T08:48:41.955Z,42
2022-12-03T08:49:41.942Z,29
2022-12-03T08:50:41.956Z,43
2022-12-03T08:51:41.956Z,38
2022-12-03T08:52:41.956Z,44
2022-12-03T08:53:41.943Z,38
2022-12-03T08:54:41.956Z,40
2022-12-03T08:55:41.957Z,36
2022-12-03T08:56:41.943Z,34
2022-12-03T08:57:41.943Z,32
2022-12-03T08:58:41.956Z,43
2022-12-03T08:59:41.957Z,41
2022-12-03T09:00:41.944Z,51
2022-12-03T09:01:41.957Z,45
2022-12-03T09:02:41.957Z,44
2022-12-03T09:03:41.957Z,37
2022-12-03T09:04:41.944Z,50
2022-12-03T09:05:41.957Z,48
2022-12-03T09:06:41.958Z,50
2022-12-03T09:07:41.957Z,50
2022-12-03T09:08:41.945Z,51
2022-12-03T09:09:41.958Z,44
2022-12-03T09:10:41.958Z,39
2022-12-03T09:11:41.945Z,40
2022-12-03T09:12:41.945Z,48
2022-12-03T09:13:41.958Z,49
2022-12-03T09:14:41.959Z,51
2022-12-03T09:15:41.945Z,73
2022-12-03T09:16:41.945Z,71
2022-12-03T09:17:41.959Z,63
2022-12-03T09:18:41.959Z,57
2022-12-03T09:19:41.946Z,60
2022-12-03T09:20:41.959Z,71
2022-12-03T09:21:41.959Z,73
2022-12-03T09:22:41.959Z,61
2022-12-03T09:23:41.946Z,60
2022-12-03T09:24:41.959Z,69
2022-12-03T09:25:41.960Z,70
2022-12-03T09:26:41.959Z,71
2022-12-03T09:27:41.947Z,72
2022-12-03T09:28:41.960Z,71
2022-12-03T09:29:41.960Z,74
2022-12-03T09:30:41.947Z,92
2022-12-03T09:31:41.947Z,83
2022-12-03T09:32:41.960Z,75
2022-12-03T09:33:41.961Z,74
2022-12-03T09:34:41.947Z,85
2022-12-03T09:35:42.025Z,89
2022-12-03T09:36:41.961Z,81
2022-12-03T09:37:41.961Z,77
2022-12-03T09:38:41.948Z,85
2022-12-03T09:39:41.961Z,79
2022-12-03T09:40:41.961Z,90
2022-12-03T09:41:41.961Z,93
2022-12-03T09:42:41.948Z,100
2022-12-03T09:43:41.961Z,90
2022-12-03T09:44:41.962Z,91
2022-12-03T09:45:41.962Z,109
2022-12-03T09:46:41.949Z,108
2022-12-03T09:47:41.962Z,85
2022-12-03T09:48:41.963Z,92
2022-12-03T09:49:41.962Z,100
2022-12-03T09:50:41.949Z,81
2022-12-03T09:51:41.962Z,88
2022-12-03T09:52:41.963Z,89
2022-12-03T09:53:41.949Z,90
2022-12-03T09:54:41.949Z,87
2022-12-03T09:55:41.963Z,82
2022-12-03T09:56:41.963Z,99
2022-12-03T09:57:41.950Z,94
2022-12-03T09:58:41.963Z,98
2022-12-03T09:59:41.963Z,108
2022-12-03T10:00:41.963Z,115
2022-12-03T10:01:41.950Z,90
2022-12-03T10:02:41.964Z,93
2022-12-03T10:03:41.964Z,85
2022-12-03T10:04:41.964Z,92
2022-12-03T10:05:41.951Z,102
2022-12-03T10:06:41.964Z,103
2022-12-03T10:07:41.965Z,102
2022-12-03T10:08:41.951Z,105
2022-12-03T10:09:41.951Z,110
2022-12-03T10:10:41.964Z,115
2022-12-03T10:11:41.965Z,119
2022-12-03T10:12:41.951Z,110
2022-12-03T10:13:41.952Z,108
2022-12-03T10:14:41.965Z,110
2022-12-03T10:15:41.965Z,127
2022-12-03T10:16:41.952Z,116
2022-12-03T10:17:41.965Z,122
2022-12-03T10:18:41.965Z,112
2022-12-03T10:19:41.965Z,118
2022-12-03T10:20:41.952Z,115
2022-12-03T10:21:41.966Z,124
2022-12-03T10:22:41.966Z,125
2022-12-03T10:23:41.966Z,126
2022-12-03T10:24:41.953Z,114
2022-12-03T10:25:42.030Z,113
2022-12-03T10:26:41.967Z,124
2022-12-03T10:27:41.953Z,116
2022-12-03T10:28:41.953Z,131
2022-12-03T10:29:41.967Z,129
2022-12-03T10:30:41.967Z,140
2022-12-03T10:31:41.953Z,130
2022-12-03T10:32:41.967Z,130
2022-12-03T10:33:41.967Z,120
2022-12-03T10:34:41.967Z,128
2022-12-03T10:35:41.954Z,132
2022-12-03T10:36:47.601Z,129
2022-12-03T10:37:41.967Z,136
2022-12-03T10:38:41.967Z,145
2022-12-03T10:39:41.954Z,146
2022-12-03T10:40:41.968Z,147
2022-12-03T10:41:41.969Z,147
2022-12-03T10:42:41.968Z,156
2022-12-03T10:43:41.955Z,171
2022-12-03T10:44:41.968Z,186
2022-12-03T10:45:41.969Z,230
2022-12-03T10:46:41.955Z,184
2022-12-03T10:47:41.955Z,177
2022-12-03T10:48:41.969Z,169
2022-12-03T10:49:41.969Z,180
2022-12-03T10:50:41.956Z,178
2022-12-03T10:51:41.956Z,162
2022-12-03T10:52:41.969Z,174
2022-12-03T10:53:41.969Z,184
2022-12-03T10:54:41.956Z,183
2022-12-03T10:55:41.969Z,180
2022-12-03T10:56:41.969Z,169
2022-12-03T10:57:41.969Z,169
2022-12-03T10:58:41.956Z,158
2022-12-03T10:59:41.970Z,164
2022-12-03T11:00:41.970Z,194
2022-12-03T11:01:41.970Z,177
2022-12-03T11:02:41.957Z,161
2022-12-03T11:03:41.970Z,139
2022-12-03T11:04:41.971Z,138
2022-12-03T11:05:41.957Z,148
2022-12-03T11:06:41.957Z,145
2022-12-03T11:07:41.970Z,131
2022-12-03T11:08:41.971Z,131
2022-12-03T11:09:41.958Z,126
2022-12-03T11:10:41.958Z,139
2022-12-03T11:11:41.971Z,145
2022-12-03T11:12:41.971Z,135
2022-12-03T11:13:41.958Z,125
2022-12-03T11:14:41.972Z,116
2022-12-03T11:15:41.972Z,138
2022-12-03T11:16:41.972Z,132
2022-12-03T11:17:41.959Z,133
2022-12-03T11:18:41.972Z,131
2022-12-03T11:19:41.972Z,123
2022-12-03T11:20:41.972Z,109
2022-12-03T11:21:41.959Z,105
2022-12-03T11:22:41.972Z,112
2022-12-03T11:23:41.973Z,115
2022-12-03T11:24:41.959Z,126
2022-12-03T11:25:41.959Z,119
2022-12-03T11:26:41.973Z,121
2022-12-03T11:27:41.973Z,134
2022-12-03T11:28:41.960Z,123
2022-12-03T11:29:41.960Z,119
2022-12-03T11:30:41.973Z,131
2022-12-03T11:31:41.973Z,111
2022-12-03T11:32:41.960Z,126
2022-12-03T11:33:41.973Z,126
2022-12-03T11:34:41.974Z,133
2022-12-03T11:35:41.973Z,149
2022-12-03T11:36:45.366Z,153
2022-12-03T11:37:41.974Z,144
2022-12-03T11:38:41.974Z,127
2022-12-03T11:39:41.974Z,134
2022-12-03T11:40:41.961Z,138
2022-12-03T11:41:41.974Z,130
2022-12-03T11:42:41.975Z,129
2022-12-03T11:43:41.974Z,150
2022-12-03T11:44:41.962Z,143
2022-12-03T11:45:41.975Z,156
2022-12-03T11:46:41.975Z,154
2022-12-03T11:47:41.962Z,159
2022-12-03T11:48:41.962Z,154
2022-12-03T11:49:41.975Z,149
2022-12-03T11:50:41.976Z,161
2022-12-03T11:51:41.962Z,159
2022-12-03T11:52:41.976Z,159
2022-12-03T11:53:41.976Z,162
2022-12-03T11:54:41.976Z,167
2022-12-03T11:55:41.963Z,156
2022-12-03T11:56:41.976Z,152
2022-12-03T11:57:41.977Z,167
2022-12-03T11:58:41.976Z,157
2022-12-03T11:59:41.963Z,172
2022-12-03T12:00:41.976Z,198
2022-12-03T12:01:41.977Z,165
2022-12-03T12:02:41.977Z,169
2022-12-03T12:03:41.964Z,153
2022-12-03T12:04:41.977Z,158
2022-12-03T12:05:41.977Z,178
2022-12-03T12:06:41.964Z,193
2022-12-03T12:07:41.964Z,178
2022-12-03T12:08:41.977Z,174
2022-12-03T12:09:41.977Z,171
2022-12-03T12:10:41.965Z,168
2022-12-03T12:11:41.978Z,172
2022-12-03T12:12:41.978Z,161
2022-12-03T12:13:41.978Z,157
2022-12-03T12:14:41.965Z,154
2022-12-03T12:15:41.978Z,172
2022-12-03T12:16:41.979Z,147
2022-12-03T12:17:41.978Z,160
2022-12-03T12:18:41.965Z,148
2022-12-03T12:19:41.979Z,135
2022-12-03T12:20:41.979Z,128
2022-12-03T12:21:41.966Z,121
2022-12-03T12:22:41.966Z,130
2022-12-03T12:23:41.979Z,143
2022-12-03T12:24:41.980Z,141
2022-12-03T12:25:41.966Z,143
2022-12-03T12:26:42.044Z,152
2022-12-03T12:27:41.979Z,155
2022-12-03T12:28:41.979Z,144
2022-12-03T12:29:41.967Z,146
2022-12-03T12:30:41.980Z,167
2022-12-03T12:31:41.980Z,131
2022-12-03T12:32:41.980Z,133
2022-12-03T12:33:41.967Z,126
2022-12-03T12:34:41.980Z,118
2022-12-03T12:36:41.980Z,115
2022-12-03T12:37:41.967Z,121
2022-12-03T12:38:41.981Z,111
2022-12-03T12:39:41.981Z,109
2022-12-03T12:40:41.968Z,117
2022-12-03T12:41:41.968Z,123
2022-12-03T12:42:41.981Z,126
2022-12-03T12:43:41.982Z,133
2022-12-03T12:44:41.968Z,132
2022-12-03T12:45:41.968Z,141
2022-12-03T12:46:41.982Z,145
2022-12-03T12:47:41.982Z,144
2022-12-03T12:48:41.969Z,147
2022-12-03T12:49:41.982Z,139
2022-12-03T12:50:41.982Z,132
2022-12-03T12:51:41.982Z,136
2022-12-03T12:52:41.969Z,152
2022-12-03T12:53:41.983Z,147
2022-12-03T12:54:42.025Z,148
2022-12-03T12:55:41.982Z,144
2022-12-03T12:56:41.969Z,139
2022-12-03T12:57:41.983Z,156
2022-12-03T12:58:41.983Z,152
2022-12-03T12:59:41.983Z,151
2022-12-03T13:00:41.970Z,180
2022-12-03T13:01:41.983Z,186
2022-12-03T13:02:41.984Z,186
2022-12-03T13:03:41.970Z,192
2022-12-03T13:04:41.970Z,202
2022-12-03T13:05:41.984Z,185
2022-12-03T13:06:41.984Z,179
2022-12-03T13:07:41.971Z,167
2022-12-03T13:08:42.025Z,167
2022-12-03T13:09:41.984Z,162
2022-12-03T13:10:41.984Z,166
2022-12-03T13:11:41.971Z,153
2022-12-03T13:12:41.984Z,176
2022-12-03T13:13:41.984Z,183
2022-12-03T13:14:41.985Z,183
2022-12-03T13:15:41.972Z,205
2022-12-03T13:16:41.985Z,191
2022-12-03T13:17:41.985Z,192
2022-12-03T13:18:41.985Z,181
2022-12-03T13:19:41.972Z,207
2022-12-03T13:20:42.026Z,190
2022-12-03T13:21:41.986Z,188
2022-12-03T13:22:41.972Z,200
2022-12-03T13:23:41.972Z,190
2022-12-03T13:24:41.986Z,187
2022-12-03T13:25:41.986Z,191
2022-12-03T13:26:41.973Z,189
2022-12-03T13:27:41.986Z,207
2022-12-03T13:28:41.986Z,199
2022-12-03T13:29:41.986Z,190
2022-12-03T13:30:41.973Z,229
2022-12-03T13:31:41.986Z,218
2022-12-03T13:32:41.989Z,203
2022-12-03T13:33:41.987Z,193
2022-12-03T13:34:41.974Z,193
2022-12-03T13:36:41.987Z,171
2022-12-03T13:37:41.987Z,181
2022-12-03T13:38:41.974Z,206
2022-12-03T13:39:41.987Z,187
2022-12-03T13:40:41.988Z,193
2022-12-03T13:41:41.974Z,192
2022-12-03T13:42:41.974Z,187
2022-12-03T13:43:41.988Z,180
2022-12-03T13:44:42.052Z,175
2022-12-03T13:45:41.975Z,184
2022-12-03T13:46:41.988Z,157
2022-12-03T13:47:41.988Z,165
2022-12-03T13:48:41.988Z,156
2022-12-03T13:49:41.975Z,176
2022-12-03T13:50:41.988Z,193
2022-12-03T13:51:41.989Z,203
2022-12-03T13:52:41.989Z,202
2022-12-03T13:53:41.976Z,207
2022-12-03T13:54:41.989Z,187
2022-12-03T13:55:41.989Z,190
2022-12-03T13:56:41.989Z,193
2022-12-03T13:57:41.976Z,195
2022-12-03T13:58:41.989Z,181
2022-12-03T13:59:41.990Z,181
2022-12-03T14:00:41.976Z,199
2022-12-03T14:01:41.976Z,196
2022-12-03T14:02:41.990Z,165
2022-12-03T14:03:41.991Z,175
2022-12-03T14:04:41.977Z,184
2022-12-03T14:05:41.977Z,187
2022-12-03T14:06:41.990Z,171
2022-12-03T14:07:41.990Z,185
2022-12-03T14:08:41.977Z,189
2022-12-03T14:09:41.990Z,188
2022-12-03T14:10:41.991Z,202
2022-12-03T14:11:41.991Z,173